Time;durP1;ratioP1;P1;durP2;ratioP2;P2;SDS_P1;SDS_P2;PMS_P1;PMS_P2;Temp;Humidity;BMP_temperature;BMP_pressure;BME280_temperature;BME280_humidity;BME280_pressure;Samples;Min_cycle;Max_cycle;Signal;HPM_P1;HPM_P2
2022/09/12 00:01:38;;;;;;;;;;;;;;;16.83;70.15;101513.66;4958345;28;20530;-56
2022/09/12 00:04:03;;;;;;;;;;;;;;;16.86;69.93;101516.09;4960449;28;20301;-56
2022/09/12 00:06:30;;;;;;;;;;;;;;;16.91;70.14;101511.28;4957925;28;20020;-56
2022/09/12 00:08:57;;;;;;;;;;;;;;;16.95;69.87;101512.78;4959854;28;19933;-57
2022/09/12 00:11:23;;;;;;;;;;;;;;;17.00;70.04;101515.97;4965377;28;19925;-58
2022/09/12 00:13:48;;;;;;;;;;;;;;;17.02;69.79;101508.69;4955024;28;19926;-56
2022/09/12 00:16:18;;;;;;;;;;;;;;;16.99;69.58;101510.75;4958112;28;19984;-57
2022/09/12 00:18:45;;;;;;;;;;;;;;;16.94;69.83;101503.06;4957745;28;20444;-56
2022/09/12 00:21:11;;;;;;;;;;;;;;;16.90;69.98;101499.81;4960641;28;19930;-56
2022/09/12 00:23:36;;;;;;;;;;;;;;;16.91;69.94;101501.50;4954872;28;19984;-57
2022/09/12 00:26:03;;;;;;;;;;;;;;;16.89;69.99;101503.41;4955703;28;20310;-57
2022/09/12 00:28:28;;;;;;;;;;;;;;;16.88;70.03;101500.84;4963766;28;19941;-57
2022/09/12 00:30:53;;;;;;;;;;;;;;;16.85;70.02;101511.72;4961028;28;19926;-55
2022/09/12 00:33:19;;;;;;;;;;;;;;;16.82;70.04;101496.00;4962103;28;20584;-56
2022/09/12 00:35:45;;;;;;;;;;;;;;;16.80;70.19;101504.06;4962448;28;19969;-57
2022/09/12 00:38:11;;;;;;;;;;;;;;;16.81;70.37;101504.94;4962678;28;19970;-57
2022/09/12 00:40:37;;;;;;;;;;;;;;;16.82;70.20;101506.63;4964934;28;19918;-57
2022/09/12 00:43:02;;;;;;;;;;;;;;;16.86;70.03;101508.13;4962239;28;20850;-57
2022/09/12 00:45:29;;;;;;;;;;;;;;;16.90;70.13;101504.25;4960141;28;20081;-57
2022/09/12 00:47:57;;;;;;;;;;;;;;;16.90;70.00;101493.63;4958495;28;20801;-59
2022/09/12 00:50:23;;;;;;;;;;;;;;;16.93;69.97;101504.03;4953791;28;20283;-59
2022/09/12 00:52:51;;;;;;;;;;;;;;;16.93;69.97;101504.03;4959541;28;20020;-58
2022/09/12 00:55:20;;;;;;;;;;;;;;;16.92;70.08;101507.66;4960913;28;19927;-57
2022/09/12 00:57:51;;;;;;;;;;;;;;;16.91;69.84;101500.63;4960161;28;19918;-57
2022/09/12 01:00:18;;;;;;;;;;;;;;;16.87;70.01;101494.69;4957835;28;19932;-56
2022/09/12 01:02:45;;;;;;;;;;;;;;;16.87;70.04;101494.69;4959184;28;19921;-56
2022/09/12 01:05:12;;;;;;;;;;;;;;;16.86;70.13;101494.81;4963139;28;20160;-57
2022/09/12 01:07:38;;;;;;;;;;;;;;;16.87;70.18;101493.84;4962687;28;19926;-57
2022/09/12 01:10:06;;;;;;;;;;;;;;;16.88;69.98;101487.56;4959568;28;20220;-58
2022/09/12 01:12:32;;;;;;;;;;;;;;;16.89;69.98;101489.25;4961849;28;20401;-56
2022/09/12 01:14:58;;;;;;;;;;;;;;;16.89;69.92;101492.78;4955581;28;19922;-56
2022/09/12 01:17:30;;;;;;;;;;;;;;;16.90;70.12;101496.28;4962476;28;19926;-56
2022/09/12 01:20:14;;;;;;;;;;;;;;;16.91;69.84;101495.31;4964467;28;19965;-57
2022/09/12 01:22:58;;;;;;;;;;;;;;;16.91;69.83;101495.31;4960756;28;21789;-56
2022/09/12 01:25:42;;;;;;;;;;;;;;;16.95;69.80;101488.84;4960993;28;19937;-56
2022/09/12 01:28:17;;;;;;;;;;;;;;;16.97;69.96;101489.59;4964562;28;19961;-59
2022/09/12 01:31:01;;;;;;;;;;;;;;;16.98;69.90;101493.97;4962976;28;19974;-57
2022/09/12 01:33:41;;;;;;;;;;;;;;;17.00;69.80;101488.50;4961073;28;19949;-56
2022/09/12 01:36:14;;;;;;;;;;;;;;;16.99;69.87;101487.69;4961598;28;20358;-57
2022/09/12 01:38:49;;;;;;;;;;;;;;;17.02;69.87;101481.28;4965975;28;19926;-57
2022/09/12 01:41:24;;;;;;;;;;;;;;;17.01;69.83;101480.44;4958544;28;19941;-57
2022/09/12 01:43:57;;;;;;;;;;;;;;;17.01;69.88;101477.78;4966357;28;19957;-56
2022/09/12 01:46:41;;;;;;;;;;;;;;;17.01;69.86;101471.59;4966742;28;20009;-58
2022/09/12 01:49:19;;;;;;;;;;;;;;;17.01;69.79;101475.13;4965397;28;20005;-59
2022/09/12 01:51:52;;;;;;;;;;;;;;;17.01;69.71;101467.16;4962579;28;19936;-56
2022/09/12 01:54:25;;;;;;;;;;;;;;;17.01;69.91;101476.94;4962921;28;20338;-56
2022/09/12 01:56:52;;;;;;;;;;;;;;;17.01;69.68;101479.59;4965358;28;20043;-57
2022/09/12 01:59:23;;;;;;;;;;;;;;;16.99;69.76;101481.50;4961161;28;19922;-58
2022/09/12 02:02:05;;;;;;;;;;;;;;;16.99;69.71;101481.50;4961494;28;19926;-57
2022/09/12 02:04:37;;;;;;;;;;;;;;;16.98;69.67;101488.63;4961108;28;19926;-58
2022/09/12 02:07:02;;;;;;;;;;;;;;;16.96;69.77;101482.59;4964183;28;19922;-58
2022/09/12 02:09:43;;;;;;;;;;;;;;;16.96;69.51;101477.28;4967294;28;19948;-59
2022/09/12 02:12:10;;;;;;;;;;;;;;;16.97;69.78;101484.28;4954556;28;19955;-57
2022/09/12 02:14:39;;;;;;;;;;;;;;;16.97;69.68;101483.41;4957515;28;19976;-56
2022/09/12 02:17:07;;;;;;;;;;;;;;;16.96;69.53;101477.28;4965361;28;19921;-58
2022/09/12 02:19:39;;;;;;;;;;;;;;;16.98;69.45;101477.16;4962220;28;20338;-56
2022/09/12 02:22:05;;;;;;;;;;;;;;;16.97;69.35;101478.09;4962295;28;19923;-56
2022/09/12 02:24:32;;;;;;;;;;;;;;;16.93;69.39;101472.13;4965940;28;20119;-57
2022/09/12 02:27:04;;;;;;;;;;;;;;;16.91;69.66;101476.72;4956386;28;20598;-56
2022/09/12 02:29:29;;;;;;;;;;;;;;;16.92;69.55;101470.44;4961274;28;19965;-56
2022/09/12 02:32:01;;;;;;;;;;;;;;;16.88;69.84;101475.13;4957460;28;20061;-56
2022/09/12 02:34:29;;;;;;;;;;;;;;;16.89;69.68;101478.63;4958059;28;20329;-56
2022/09/12 02:37:04;;;;;;;;;;;;;;;16.88;69.90;101475.13;4963612;28;19948;-57
2022/09/12 02:39:30;;;;;;;;;;;;;;;16.89;69.56;101481.28;4956030;28;19929;-57
2022/09/12 02:41:57;;;;;;;;;;;;;;;16.90;69.67;101480.31;4955566;28;19926;-56
2022/09/12 02:44:24;;;;;;;;;;;;;;;16.89;69.73;101475.97;4964275;28;20021;-57
2022/09/12 02:46:52;;;;;;;;;;;;;;;16.88;69.80;101469.81;4954910;28;19930;-56
2022/09/12 02:49:17;;;;;;;;;;;;;;;16.88;69.66;101482.25;4955980;28;19926;-57
2022/09/12 02:51:44;;;;;;;;;;;;;;;16.85;69.60;101469.22;4962507;28;19918;-57
2022/09/12 02:54:10;;;;;;;;;;;;;;;16.83;69.73;101477.28;4959919;28;20263;-58
2022/09/12 02:56:40;;;;;;;;;;;;;;;16.83;69.74;101469.28;4954676;28;19930;-58
2022/09/12 02:59:06;;;;;;;;;;;;;;;16.83;69.81;101473.78;4962428;28;19922;-57
2022/09/12 03:01:41;;;;;;;;;;;;;;;16.82;69.88;101478.22;4956499;28;20622;-57
2022/09/12 03:04:09;;;;;;;;;;;;;;;16.82;69.91;101474.75;4967179;28;20391;-56
2022/09/12 03:06:43;;;;;;;;;;;;;;;16.83;69.70;101468.47;4963066;28;20402;-57
2022/09/12 03:09:22;;;;;;;;;;;;;;;16.82;69.69;101474.75;4959260;28;19926;-56
2022/09/12 03:11:53;;;;;;;;;;;;;;;16.81;69.70;101475.69;4963869;28;19922;-56
2022/09/12 03:14:25;;;;;;;;;;;;;;;16.79;69.82;101478.44;4961415;28;19926;-57
2022/09/12 03:16:56;;;;;;;;;;;;;;;16.77;69.86;101467.94;4956064;28;19922;-56
2022/09/12 03:19:32;;;;;;;;;;;;;;;16.75;69.75;101471.69;4960132;28;19976;-56
2022/09/12 03:21:58;;;;;;;;;;;;;;;16.72;69.69;101470.06;4963162;28;20018;-57
2022/09/12 03:24:28;;;;;;;;;;;;;;;16.70;69.88;101472.03;4963763;28;20012;-57
2022/09/12 03:26:57;;;;;;;;;;;;;;;16.70;69.60;101472.03;4958710;28;19930;-57
2022/09/12 03:29:24;;;;;;;;;;;;;;;16.68;69.87;101471.28;4961342;28;19965;-56
2022/09/12 03:31:54;;;;;;;;;;;;;;;16.68;69.70;101473.94;4960928;28;19989;-56
2022/09/12 03:34:20;;;;;;;;;;;;;;;16.67;69.81;101469.56;4965348;28;19925;-56
2022/09/12 03:36:46;;;;;;;;;;;;;;;16.66;69.85;101470.53;4960644;28;20008;-57
2022/09/12 03:39:12;;;;;;;;;;;;;;;16.67;69.77;101482.00;4956418;28;20008;-58
2022/09/12 03:41:37;;;;;;;;;;;;;;;16.67;69.60;101482.00;4958087;28;20287;-59
2022/09/12 03:44:02;;;;;;;;;;;;;;;16.63;69.74;101476.06;4960031;28;19933;-57
2022/09/12 03:46:28;;;;;;;;;;;;;;;16.60;69.67;101471.81;4957175;28;20024;-59
2022/09/12 03:48:53;;;;;;;;;;;;;;;16.60;69.79;101481.59;4963132;28;20349;-57
2022/09/12 03:51:18;;;;;;;;;;;;;;;16.60;69.70;101489.56;4965524;28;19934;-58
2022/09/12 03:53:43;;;;;;;;;;;;;;;16.59;69.82;101487.84;4960241;28;20405;-58
2022/09/12 03:56:10;;;;;;;;;;;;;;;16.58;69.79;101492.34;4959458;28;19933;-57
2022/09/12 03:58:35;;;;;;;;;;;;;;;16.59;69.60;101491.38;4959926;28;19932;-56
2022/09/12 04:01:11;;;;;;;;;;;;;;;16.58;69.71;101487.03;4962345;28;20382;-56
2022/09/12 04:03:40;;;;;;;;;;;;;;;16.58;69.77;101496.78;4956016;28;19923;-56
2022/09/12 04:06:07;;;;;;;;;;;;;;;16.56;69.71;101491.59;4962096;28;19933;-56
2022/09/12 04:08:33;;;;;;;;;;;;;;;16.55;69.68;101487.25;4963768;28;19922;-56
2022/09/12 04:11:05;;;;;;;;;;;;;;;16.53;69.58;101486.50;4956491;28;19965;-57
2022/09/12 04:13:31;;;;;;;;;;;;;;;16.52;69.69;101487.44;4957268;28;19937;-56
2022/09/12 04:15:56;;;;;;;;;;;;;;;16.51;69.70;101492.88;4956723;28;19969;-55
2022/09/12 04:18:22;;;;;;;;;;;;;;;16.50;69.61;101491.19;4957044;28;19961;-56
2022/09/12 04:20:47;;;;;;;;;;;;;;;16.46;69.73;101499.38;4959879;28;19926;-57
2022/09/12 04:23:12;;;;;;;;;;;;;;;16.44;69.79;101497.78;4962743;28;20382;-56
2022/09/12 04:25:38;;;;;;;;;;;;;;;16.42;69.79;101494.38;4957803;28;19984;-57
2022/09/12 04:28:03;;;;;;;;;;;;;;;16.38;69.66;101498.19;4961220;28;19926;-57
2022/09/12 04:30:28;;;;;;;;;;;;;;;16.35;69.57;101501.94;4947982;28;19934;-56
2022/09/12 04:32:53;;;;;;;;;;;;;;;16.32;69.64;101502.16;4957276;28;19996;-55
2022/09/12 04:35:19;;;;;;;;;;;;;;;16.29;69.84;101499.69;4961070;28;19933;-56
2022/09/12 04:37:44;;;;;;;;;;;;;;;16.28;69.81;101498.88;4960584;28;21172;-56
2022/09/12 04:40:09;;;;;;;;;;;;;;;16.26;69.57;101497.28;4955811;28;20843;-56
2022/09/12 04:42:35;;;;;;;;;;;;;;;16.24;69.59;101493.88;4954580;28;19933;-57
2022/09/12 04:45:00;;;;;;;;;;;;;;;16.21;69.61;101492.25;4954316;28;19934;-56
2022/09/12 04:47:25;;;;;;;;;;;;;;;16.20;69.72;101492.38;4956410;28;19934;-56
2022/09/12 04:49:51;;;;;;;;;;;;;;;16.19;69.63;101496.00;4953072;28;19930;-57
2022/09/12 04:52:16;;;;;;;;;;;;;;;16.17;69.71;101492.59;4959386;28;19926;-57
2022/09/12 04:54:41;;;;;;;;;;;;;;;16.15;69.79;101495.38;4957857;28;20365;-58
2022/09/12 04:57:07;;;;;;;;;;;;;;;16.13;69.67;101490.16;4961168;28;19922;-56
2022/09/12 04:59:32;;;;;;;;;;;;;;;16.11;69.68;101494.72;4960347;28;19957;-57
2022/09/12 05:01:57;;;;;;;;;;;;;;;16.09;69.70;101494.00;4964026;28;20020;-56
2022/09/12 05:04:23;;;;;;;;;;;;;;;16.09;69.83;101493.13;4959625;28;19930;-56
2022/09/12 05:06:48;;;;;;;;;;;;;;;16.09;69.83;101494.00;4962529;28;20022;-56
2022/09/12 05:09:14;;;;;;;;;;;;;;;16.11;69.76;101497.38;4961200;28;19922;-56
2022/09/12 05:11:42;;;;;;;;;;;;;;;16.12;69.82;101488.44;4962832;28;20782;-57
2022/09/12 05:14:07;;;;;;;;;;;;;;;16.14;69.77;101491.00;4963697;28;20016;-57
2022/09/12 05:16:33;;;;;;;;;;;;;;;16.15;69.64;101493.53;4964712;28;20012;-56
2022/09/12 05:18:58;;;;;;;;;;;;;;;16.14;69.67;101497.16;4961787;28;19980;-58
2022/09/12 05:21:24;;;;;;;;;;;;;;;16.14;69.70;101496.31;4960039;28;20342;-56
2022/09/12 05:23:53;;;;;;;;;;;;;;;16.14;69.80;101496.31;4962785;28;19933;-56
2022/09/12 05:26:20;;;;;;;;;;;;;;;16.14;69.58;101504.28;4964890;28;19941;-56
2022/09/12 05:28:46;;;;;;;;;;;;;;;16.15;69.78;101512.13;4964052;28;20220;-59
2022/09/12 05:31:13;;;;;;;;;;;;;;;16.16;69.64;101515.66;4965958;28;19948;-56
2022/09/12 05:33:39;;;;;;;;;;;;;;;16.17;69.76;101516.50;4964919;28;19925;-56
2022/09/12 05:36:05;;;;;;;;;;;;;;;16.20;69.61;101518.94;4963848;28;19937;-56
2022/09/12 05:38:33;;;;;;;;;;;;;;;16.21;69.57;101517.97;4962485;28;19921;-57
2022/09/12 05:41:06;;;;;;;;;;;;;;;16.19;69.66;101515.41;4962576;28;20440;-56
2022/09/12 05:43:34;;;;;;;;;;;;;;;16.21;69.48;101515.34;4967785;28;20386;-57
2022/09/12 05:46:01;;;;;;;;;;;;;;;16.21;69.61;101512.66;4968258;28;19934;-57
2022/09/12 05:48:27;;;;;;;;;;;;;;;16.23;69.48;101521.38;4966604;28;19921;-57
2022/09/12 05:50:57;;;;;;;;;;;;;;;16.21;69.65;101524.13;4968625;28;19930;-56
2022/09/12 05:53:27;;;;;;;;;;;;;;;16.22;69.57;101519.69;4969665;28;20001;-56
2022/09/12 05:56:00;;;;;;;;;;;;;;;16.22;69.70;101527.66;4970438;28;19930;-57
2022/09/12 05:58:25;;;;;;;;;;;;;;;16.21;69.45;101525.94;4969318;28;19918;-56
2022/09/12 06:00:51;;;;;;;;;;;;;;;16.20;69.45;101532.22;4967761;28;19993;-56
2022/09/12 06:03:16;;;;;;;;;;;;;;;16.19;69.42;101526.03;4966185;28;20004;-56
2022/09/12 06:05:41;;;;;;;;;;;;;;;16.18;69.50;101529.69;4962418;28;19930;-57
2022/09/12 06:08:07;;;;;;;;;;;;;;;16.18;69.47;101529.69;4967555;28;19932;-56
2022/09/12 06:10:34;;;;;;;;;;;;;;;16.17;69.68;101532.41;4963313;28;20412;-56
2022/09/12 06:12:59;;;;;;;;;;;;;;;16.17;69.46;101527.97;4965116;28;20330;-56
2022/09/12 06:15:24;;;;;;;;;;;;;;;16.14;69.46;101530.84;4967025;28;19929;-56
2022/09/12 06:17:50;;;;;;;;;;;;;;;16.10;69.66;101542.63;4959903;28;20021;-57
2022/09/12 06:20:15;;;;;;;;;;;;;;;16.04;69.70;101538.56;4964238;28;20581;-56
2022/09/12 06:22:41;;;;;;;;;;;;;;;16.02;69.91;101553.75;4965404;28;19961;-58
2022/09/12 06:25:07;;;;;;;;;;;;;;;16.04;70.06;101545.66;4967094;28;19960;-58
2022/09/12 06:27:32;;;;;;;;;;;;;;;16.07;69.96;101540.16;4967856;28;20075;-57
2022/09/12 06:29:58;;;;;;;;;;;;;;;16.10;69.97;101548.78;4964442;28;20028;-56
2022/09/12 06:32:23;;;;;;;;;;;;;;;16.13;69.89;101545.91;4966348;28;20291;-57
2022/09/12 06:34:49;;;;;;;;;;;;;;;16.15;70.03;101546.66;4969096;28;19926;-56
2022/09/12 06:37:15;;;;;;;;;;;;;;;16.17;69.85;101545.69;4970640;28;19965;-60
2022/09/12 06:39:40;;;;;;;;;;;;;;;16.21;70.08;101544.53;4967083;28;19972;-57
2022/09/12 06:42:05;;;;;;;;;;;;;;;16.24;69.84;101544.34;4966591;28;19929;-56
2022/09/12 06:44:30;;;;;;;;;;;;;;;16.26;70.08;101543.25;4967693;28;19941;-57
2022/09/12 06:46:57;;;;;;;;;;;;;;;16.28;70.01;101551.09;4966809;28;19966;-55
2022/09/12 06:49:22;;;;;;;;;;;;;;;16.32;70.05;101555.25;4964966;28;19926;-56
2022/09/12 06:51:48;;;;;;;;;;;;;;;16.35;70.10;101557.72;4966170;28;19922;-57
2022/09/12 06:54:14;;;;;;;;;;;;;;;16.39;70.06;101548.56;4966907;28;19958;-57
2022/09/12 06:56:39;;;;;;;;;;;;;;;16.43;70.09;101551.88;4966070;28;19926;-56
2022/09/12 06:59:05;;;;;;;;;;;;;;;16.48;69.99;101548.88;4964834;28;19933;-57
2022/09/12 07:01:30;;;;;;;;;;;;;;;16.53;69.99;101554.72;4965203;28;19926;-56
2022/09/12 07:03:59;;;;;;;;;;;;;;;16.58;69.93;101549.91;4966805;28;20361;-56
2022/09/12 07:06:33;;;;;;;;;;;;;;;16.61;69.92;101552.38;4966146;28;19929;-56
2022/09/12 07:08:58;;;;;;;;;;;;;;;16.62;69.94;101548.75;4968643;28;20457;-56
2022/09/12 07:11:25;;;;;;;;;;;;;;;16.65;69.85;101543.22;4966550;28;19917;-57
2022/09/12 07:13:52;;;;;;;;;;;;;;;16.67;69.90;101543.97;4967833;28;19922;-56
2022/09/12 07:16:18;;;;;;;;;;;;;;;16.72;69.93;101549.78;4969586;28;19922;-57
2022/09/12 07:18:45;;;;;;;;;;;;;;;16.76;69.96;101551.28;4967109;28;19914;-55
2022/09/12 07:21:11;;;;;;;;;;;;;;;16.80;69.77;101540.44;4966047;28;19928;-58
2022/09/12 07:23:36;;;;;;;;;;;;;;;16.85;69.85;101539.16;4967721;28;19941;-55
2022/09/12 07:26:02;;;;;;;;;;;;;;;16.89;69.71;101543.28;4962358;28;19930;-56
2022/09/12 07:28:29;;;;;;;;;;;;;;;16.96;69.71;101546.38;4967172;28;19918;-57
2022/09/12 07:30:55;;;;;;;;;;;;;;;17.01;69.45;101549.56;4964694;28;19922;-57
2022/09/12 07:33:21;;;;;;;;;;;;;;;17.03;69.46;101544.97;4966859;28;20715;-56
2022/09/12 07:35:46;;;;;;;;;;;;;;;17.05;69.35;101551.03;4966339;28;19922;-56
2022/09/12 07:38:12;;;;;;;;;;;;;;;17.05;69.50;101545.72;4967933;28;20279;-57
2022/09/12 07:40:37;;;;;;;;;;;;;;;17.06;69.32;101546.56;4968180;28;20356;-58
2022/09/12 07:43:02;;;;;;;;;;;;;;;17.08;69.47;101554.41;4965413;28;19925;-57
2022/09/12 07:45:28;;;;;;;;;;;;;;;17.12;69.22;101561.22;4964646;28;20017;-57
2022/09/12 07:47:54;;;;;;;;;;;;;;;17.15;69.28;101555.69;4964827;28;19926;-57
2022/09/12 07:50:19;;;;;;;;;;;;;;;17.16;69.15;101558.22;4966695;28;19935;-56
2022/09/12 07:52:44;;;;;;;;;;;;;;;17.15;68.95;101551.22;4966318;28;19926;-56
2022/09/12 07:55:09;;;;;;;;;;;;;;;17.17;69.18;101551.94;4967485;28;19985;-57
2022/09/12 07:57:35;;;;;;;;;;;;;;;17.19;69.22;101557.16;4957843;28;19930;-57
2022/09/12 08:00:00;;;;;;;;;;;;;;;17.22;68.82;101551.59;4962378;28;19981;-57
2022/09/12 08:02:25;;;;;;;;;;;;;;;17.23;68.99;101555.97;4964801;28;19930;-56
2022/09/12 08:04:51;;;;;;;;;;;;;;;17.25;69.08;101553.19;4963848;28;19934;-60
2022/09/12 08:07:18;;;;;;;;;;;;;;;17.26;69.05;101547.78;4966757;28;19972;-58
2022/09/12 08:09:43;;;;;;;;;;;;;;;17.29;68.86;101558.19;4964337;28;19926;-58
2022/09/12 08:12:09;;;;;;;;;;;;;;;17.33;68.96;101559.63;4966461;28;19926;-58
2022/09/12 08:14:34;;;;;;;;;;;;;;;17.37;68.67;101563.78;4966175;28;19941;-61
2022/09/12 08:16:59;;;;;;;;;;;;;;;17.40;68.62;101554.72;4965667;28;19961;-59
2022/09/12 08:19:25;;;;;;;;;;;;;;;17.46;68.60;101562.25;4967592;28;21170;-56
2022/09/12 08:21:50;;;;;;;;;;;;;;;17.50;68.81;101562.88;4965108;28;19965;-56
2022/09/12 08:24:15;;;;;;;;;;;;;;;17.56;68.45;101565.09;4967717;28;19926;-57
2022/09/12 08:26:41;;;;;;;;;;;;;;;17.61;68.21;101562.06;4964339;28;20366;-55
2022/09/12 08:29:07;;;;;;;;;;;;;;;17.64;68.28;101561.84;4964268;28;19929;-58
2022/09/12 08:31:41;;;;;;;;;;;;;;;17.68;68.39;101560.66;4966142;28;19948;-56
2022/09/12 08:34:07;;;;;;;;;;;;;;;17.73;68.47;101566.47;4967719;28;19983;-56
2022/09/12 08:36:32;;;;;;;;;;;;;;;17.79;67.83;101559.84;4961764;28;20425;-59
2022/09/12 08:38:59;;;;;;;;;;;;;;;17.83;67.88;101561.31;4967409;28;19981;-57
2022/09/12 08:41:26;;;;;;;;;;;;;;;17.89;67.96;101560.84;4965820;28;19918;-57
2022/09/12 08:44:12;;;;;;;;;;;;;;;17.93;67.88;101551.66;4963314;28;20020;-58
2022/09/12 08:46:37;;;;;;;;;;;;;;;18.01;67.47;101548.44;4965497;28;20872;-57
2022/09/12 08:49:06;;;;;;;;;;;;;;;18.08;67.45;101551.47;4961948;28;20040;-58
2022/09/12 08:51:33;;;;;;;;;;;;;;;18.15;66.93;101544.72;4963784;28;20433;-59
2022/09/12 08:54:00;;;;;;;;;;;;;;;18.22;66.52;101550.41;4968145;28;19949;-59
2022/09/12 08:56:28;;;;;;;;;;;;;;;18.29;66.86;101548.97;4964842;28;19942;-59
2022/09/12 08:58:53;;;;;;;;;;;;;;;18.34;66.50;101548.63;4967088;28;19918;-56
2022/09/12 09:01:30;;;;;;;;;;;;;;;18.35;66.21;101548.50;4965558;28;20333;-57
2022/09/12 09:04:07;;;;;;;;;;;;;;;18.37;66.10;101553.72;4966699;28;19934;-56
2022/09/12 09:06:48;;;;;;;;;;;;;;;18.36;66.27;101547.53;4965291;28;20004;-57
2022/09/12 09:09:34;;;;;;;;;;;;;;;18.36;65.95;101544.84;4966117;28;19922;-57
2022/09/12 09:12:06;;;;;;;;;;;;;;;18.36;65.47;101552.84;4960071;28;19950;-56
2022/09/12 09:14:52;;;;;;;;;;;;;;;18.35;65.48;101550.31;4963953;28;19922;-56
2022/09/12 09:17:37;;;;;;;;;;;;;;;18.35;65.51;101547.66;4967354;28;19973;-57
2022/09/12 09:20:03;;;;;;;;;;;;;;;18.41;65.71;101555.16;4966546;28;20127;-60
2022/09/12 09:22:48;;;;;;;;;;;;;;;18.49;65.14;101552.75;4965643;28;20147;-56
2022/09/12 09:25:19;;;;;;;;;;;;;;;18.57;64.94;101552.97;4969982;28;20306;-60
2022/09/12 09:28:02;;;;;;;;;;;;;;;18.63;64.88;101548.13;4969245;28;19918;-56
2022/09/12 09:30:28;;;;;;;;;;;;;;;18.68;64.44;101548.63;4967498;28;19922;-60
2022/09/12 09:32:55;;;;;;;;;;;;;;;18.71;64.16;101545.69;4968829;28;19984;-56
2022/09/12 09:35:21;;;;;;;;;;;;;;;18.75;64.14;101552.50;4970499;28;19921;-56
2022/09/12 09:37:59;;;;;;;;;;;;;;;18.82;64.41;101552.84;4971323;28;19914;-56
2022/09/12 09:40:36;;;;;;;;;;;;;;;18.87;64.19;101546.16;4968577;28;20051;-57
2022/09/12 09:43:05;;;;;;;;;;;;;;;18.88;64.05;101542.53;4969626;28;20009;-56
2022/09/12 09:45:30;;;;;;;;;;;;;;;18.92;64.16;101543.13;4969925;28;19932;-55
2022/09/12 09:48:02;;;;;;;;;;;;;;;18.97;64.03;101540.97;4967099;28;19930;-56
2022/09/12 09:50:27;;;;;;;;;;;;;;;18.97;63.51;101538.31;4969018;28;19930;-56
2022/09/12 09:52:55;;;;;;;;;;;;;;;18.99;63.55;101539.03;4967661;28;19930;-56
2022/09/12 09:55:24;;;;;;;;;;;;;;;19.02;63.21;101533.47;4968691;28;19922;-58
2022/09/12 09:57:51;;;;;;;;;;;;;;;19.06;63.05;101528.72;4968666;28;19922;-60
2022/09/12 10:00:32;;;;;;;;;;;;;;;19.07;62.97;101535.75;4967463;28;19956;-57
2022/09/12 10:03:23;;;;;;;;;;;;;;;19.09;63.15;101532.94;4968499;28;20040;-57
2022/09/12 10:05:53;;;;;;;;;;;;;;;19.13;62.98;101524.59;4969869;28;19926;-58
2022/09/12 10:08:22;;;;;;;;;;;;;;;19.22;62.70;101522.97;4969939;28;19937;-58
2022/09/12 10:10:53;;;;;;;;;;;;;;;19.32;62.32;101518.56;4969249;28;19933;-58
2022/09/12 10:13:36;;;;;;;;;;;;;;;19.44;62.05;101530.03;4966874;28;20322;-56
2022/09/12 10:16:04;;;;;;;;;;;;;;;19.52;61.91;101524.06;4968924;28;20021;-58
2022/09/12 10:18:49;;;;;;;;;;;;;;;19.56;61.17;101527.34;4968239;28;20382;-59
2022/09/12 10:21:18;;;;;;;;;;;;;;;19.58;60.73;101528.06;4965810;28;19918;-57
2022/09/12 10:23:44;;;;;;;;;;;;;;;19.52;61.00;101529.38;4968286;28;19918;-56
2022/09/12 10:26:14;;;;;;;;;;;;;;;19.48;61.20;101523.47;4967937;28;19930;-58
2022/09/12 10:28:45;;;;;;;;;;;;;;;19.46;61.12;101528.09;4968657;28;19922;-60
2022/09/12 10:31:16;;;;;;;;;;;;;;;19.40;61.40;101520.59;4968072;28;21035;-58
2022/09/12 10:33:51;;;;;;;;;;;;;;;19.33;61.02;101519.41;4982104;28;20021;-57
2022/09/12 10:36:17;;;;;;;;;;;;;;;19.25;61.26;101527.22;4967051;28;20345;-60
2022/09/12 10:38:48;;;;;;;;;;;;;;;19.15;61.67;101524.44;4966084;28;20425;-57
2022/09/12 10:41:13;;;;;;;;;;;;;;;19.07;61.79;101521.53;4966011;28;19922;-56
2022/09/12 10:43:40;;;;;;;;;;;;;;;19.01;61.97;101531.75;4967701;28;19930;-57
2022/09/12 10:46:17;;;;;;;;;;;;;;;18.95;61.92;101526.09;4965380;28;19934;-57
2022/09/12 10:48:44;;;;;;;;;;;;;;;18.91;62.22;101527.25;4966971;28;19926;-56
2022/09/12 10:51:24;;;;;;;;;;;;;;;18.89;62.27;101522.91;4966804;28;19961;-57
2022/09/12 10:54:09;;;;;;;;;;;;;;;18.92;62.23;101520.97;4964724;28;19926;-57
2022/09/12 10:56:37;;;;;;;;;;;;;;;18.98;62.05;101520.50;4966758;28;19968;-56
2022/09/12 10:59:03;;;;;;;;;;;;;;;19.04;62.02;101515.53;4967545;28;20409;-56
2022/09/12 11:01:28;;;;;;;;;;;;;;;19.11;61.74;101518.53;4967416;28;19922;-57
2022/09/12 11:04:02;;;;;;;;;;;;;;;19.16;61.89;101513.63;4965288;28;19933;-56
2022/09/12 11:06:48;;;;;;;;;;;;;;;19.24;61.39;101512.19;4965087;28;19965;-56
2022/09/12 11:09:13;;;;;;;;;;;;;;;19.33;61.24;101508.72;4938554;28;19950;-57
2022/09/12 11:11:46;;;;;;;;;;;;;;;19.44;61.24;101505.19;4967868;28;19926;-57
2022/09/12 11:14:37;;;;;;;;;;;;;;;19.55;61.34;101514.97;4968703;28;19929;-57
2022/09/12 11:17:02;;;;;;;;;;;;;;;19.66;61.01;101512.22;4965652;28;19919;-56
2022/09/12 11:19:46;;;;;;;;;;;;;;;19.73;60.52;101517.91;4967081;28;19922;-56
2022/09/12 11:22:26;;;;;;;;;;;;;;;19.75;60.31;101508.75;4965988;28;20305;-56
2022/09/12 11:24:54;;;;;;;;;;;;;;;19.76;60.56;101515.81;4966824;28;20465;-56
2022/09/12 11:27:19;;;;;;;;;;;;;;;19.75;60.57;101514.09;4967778;28;20012;-56
2022/09/12 11:29:57;;;;;;;;;;;;;;;19.75;60.20;101508.75;4969313;28;19973;-58
2022/09/12 11:32:28;;;;;;;;;;;;;;;19.75;60.17;101518.63;4965707;28;19993;-57
2022/09/12 11:34:54;;;;;;;;;;;;;;;19.76;60.15;101512.31;4966394;28;20313;-57
2022/09/12 11:37:38;;;;;;;;;;;;;;;19.77;60.04;101512.16;4963626;28;19966;-57
2022/09/12 11:40:22;;;;;;;;;;;;;;;19.78;59.99;101505.00;4967083;28;19921;-56
2022/09/12 11:42:51;;;;;;;;;;;;;;;19.76;59.94;101510.47;4967670;28;19929;-56
2022/09/12 11:45:27;;;;;;;;;;;;;;;19.74;60.20;101504.41;4964642;28;19926;-58
2022/09/12 11:47:54;;;;;;;;;;;;;;;19.74;59.99;101509.75;4966372;28;19929;-56
2022/09/12 11:50:29;;;;;;;;;;;;;;;19.75;59.81;101513.28;4965699;28;20152;-60
2022/09/12 11:52:59;;;;;;;;;;;;;;;19.74;59.73;101503.56;4967649;28;19936;-57
2022/09/12 11:55:27;;;;;;;;;;;;;;;19.75;59.65;101507.94;4965069;28;20068;-59
2022/09/12 11:57:52;;;;;;;;;;;;;;;19.76;59.76;101507.78;4967773;28;19926;-59
2022/09/12 12:00:21;;;;;;;;;;;;;;;19.77;59.32;101508.66;4962897;28;19928;-57
2022/09/12 12:02:54;;;;;;;;;;;;;;;19.75;59.56;101500.75;4965740;28;19945;-59
2022/09/12 12:05:30;;;;;;;;;;;;;;;19.77;59.28;101508.66;4965982;28;19922;-58
2022/09/12 12:07:59;;;;;;;;;;;;;;;19.80;59.47;101506.56;4964229;28;20045;-59
2022/09/12 12:10:25;;;;;;;;;;;;;;;19.82;59.14;101505.59;4965556;28;19925;-56
2022/09/12 12:12:51;;;;;;;;;;;;;;;19.81;59.54;101494.06;4968583;28;20008;-56
2022/09/12 12:15:18;;;;;;;;;;;;;;;19.83;59.50;101494.75;4967394;28;19921;-56
2022/09/12 12:17:43;;;;;;;;;;;;;;;19.82;59.36;101494.91;4966682;28;19929;-56
2022/09/12 12:20:15;;;;;;;;;;;;;;;19.82;59.21;101497.56;4965385;28;19926;-56
2022/09/12 12:22:50;;;;;;;;;;;;;;;19.82;59.27;101486.91;4964929;28;20294;-56
2022/09/12 12:25:16;;;;;;;;;;;;;;;19.83;59.51;101486.75;4968424;28;19980;-56
2022/09/12 12:27:44;;;;;;;;;;;;;;;19.86;59.49;101483.00;4964473;28;19922;-56
2022/09/12 12:30:28;;;;;;;;;;;;;;;19.88;59.52;101481.91;4968123;28;19918;-58
2022/09/12 12:33:16;;;;;;;;;;;;;;;19.96;59.18;101473.25;4964454;28;19922;-56
2022/09/12 12:35:45;;;;;;;;;;;;;;;20.09;59.07;101475.69;4932019;28;20313;-56
2022/09/12 12:38:29;;;;;;;;;;;;;;;20.20;58.87;101474.75;4963007;28;19925;-57
2022/09/12 12:41:13;;;;;;;;;;;;;;;20.31;58.94;101469.31;4962728;28;19952;-57
2022/09/12 12:43:38;;;;;;;;;;;;;;;20.40;58.64;101475.69;4962719;28;19933;-56
2022/09/12 12:46:05;;;;;;;;;;;;;;;20.46;58.68;101476.97;4964824;28;19922;-57